Terminal Aerodrome Forecast
Issued by NWS

Home | Current Version | Previous Version | Text Only | Print | Product List | Glossary On
Versions: 1 2 3 4 5 6 7 8 9 10 11 12 13 14 15 16
396
FTUS46 KHNX 191238 RRA
TAFBFL
TAF
KBFL 191238Z 1913/2012 04007KT P6SM FEW080 OVC110
     FM191500 14010G20KT 3SM -SHRA BR SCT015 OVC030
     FM192000 16008KT 4SM -SHRA BKN025 OVC045 PROB30 1922/2002 TSRA
      BKN040CB
     FM200200 13004KT 6SM BR OVC050
     FM200500 14002KT 4SM BR OVC050
     FM201000 11015G21KT 6SM -RA BR OVC050=

USA.gov is the U.S. government's official web portal to all federal, state and local government web resources and services.